createdAt,value
2023-05-16T00:00:37.972Z,491.9231
2023-05-16T00:01:40.370Z,492.6154
2023-05-16T00:02:42.812Z,494.0000
2023-05-16T00:03:44.990Z,493.8333
2023-05-16T00:04:47.306Z,493.1667
2023-05-16T00:05:49.614Z,492.2308
2023-05-16T00:06:51.945Z,492.6154
2023-05-16T00:07:54.286Z,492.0000
2023-05-16T00:08:56.604Z,494.4615
2023-05-16T00:09:58.948Z,494.6154
2023-05-16T00:11:01.288Z,494.4546
2023-05-16T00:12:03.596Z,491.1538
2023-05-16T00:13:05.926Z,486.7692
2023-05-16T00:14:08.265Z,484.8462
2023-05-16T00:15:10.593Z,485.6154
2023-05-16T00:16:13.063Z,488.1538
2023-05-16T00:17:15.263Z,488.9167
2023-05-16T00:18:17.574Z,491.9091
2023-05-16T00:19:19.978Z,496.8462
2023-05-16T00:20:22.242Z,497.8333
2023-05-16T00:21:24.560Z,499.0000
2023-05-16T00:22:26.873Z,502.6154
2023-05-16T00:23:29.224Z,503.1538
2023-05-16T00:24:31.542Z,502.5385
2023-05-16T00:25:33.893Z,500.6923
2023-05-16T00:26:36.192Z,497.4615
2023-05-16T00:27:38.537Z,499.0769
2023-05-16T00:28:40.849Z,500.0769
2023-05-16T00:29:43.185Z,500.9231
2023-05-16T00:30:45.545Z,503.0769
2023-05-16T00:31:47.859Z,504.0769
2023-05-16T00:32:50.223Z,499.9231
2023-05-16T00:33:52.504Z,497.5385
2023-05-16T00:34:54.812Z,496.1538
2023-05-16T00:35:57.157Z,494.9231
2023-05-16T00:36:59.467Z,494.5385
2023-05-16T00:38:01.801Z,493.3846
2023-05-16T00:39:04.147Z,489.2308
2023-05-16T00:40:06.510Z,485.5385
2023-05-16T00:41:16.321Z,486.6154
2023-05-16T00:42:20.290Z,494.4546
2023-05-16T00:43:13.523Z,494.7273
2023-05-16T00:44:15.768Z,495.5833
2023-05-16T00:45:18.150Z,495.6154
2023-05-16T00:46:20.476Z,498.8462
2023-05-16T00:47:22.770Z,497.5385
2023-05-16T00:48:25.090Z,498.2308
2023-05-16T00:49:27.440Z,498.6154
2023-05-16T00:50:29.937Z,499.3077
2023-05-16T00:51:32.082Z,501.9167
2023-05-16T00:52:34.403Z,501.1538
2023-05-16T00:53:36.753Z,501.0000
2023-05-16T00:54:39.091Z,504.3077
2023-05-16T00:55:41.396Z,506.4615
2023-05-16T00:56:43.768Z,507.6667
2023-05-16T00:57:46.073Z,509.3077
2023-05-16T00:58:48.464Z,510.0769
2023-05-16T00:59:50.759Z,508.3333
2023-05-16T01:00:53.064Z,509.9231
2023-05-16T01:01:55.449Z,512.0000
2023-05-16T01:02:57.825Z,512.7692
2023-05-16T01:04:00.274Z,512.3333
2023-05-16T01:05:02.410Z,514.0000
2023-05-16T01:06:04.741Z,514.0000
2023-05-16T01:07:07.103Z,514.1539
2023-05-16T01:08:09.416Z,511.8333
2023-05-16T01:09:11.758Z,516.9231
2023-05-16T01:10:14.062Z,520.2727
2023-05-16T01:11:16.397Z,520.2308
2023-05-16T01:12:18.735Z,518.2308
2023-05-16T01:13:21.091Z,517.1539
2023-05-16T01:14:23.412Z,517.0000
2023-05-16T01:15:25.938Z,516.3846
2023-05-16T01:16:28.115Z,514.7500
2023-05-16T01:17:30.430Z,512.5000
2023-05-16T01:18:32.809Z,510.0909
2023-05-16T01:19:35.101Z,508.8462
2023-05-16T01:20:37.400Z,507.7500
2023-05-16T01:21:39.773Z,508.9167
2023-05-16T01:22:42.083Z,509.4167
2023-05-16T01:23:44.402Z,510.0000
2023-05-16T01:24:46.749Z,509.2308
2023-05-16T01:25:49.098Z,508.1667
2023-05-16T01:26:51.388Z,506.5000
2023-05-16T01:27:53.714Z,507.8462
2023-05-16T01:28:56.071Z,510.0769
2023-05-16T01:29:58.380Z,513.6923
2023-05-16T01:31:00.766Z,510.9231
2023-05-16T01:32:03.088Z,509.2500
2023-05-16T01:33:05.485Z,503.9167
2023-05-16T01:34:07.682Z,502.3333
2023-05-16T01:35:10.026Z,503.6923
2023-05-16T01:36:12.338Z,509.3077
2023-05-16T01:37:14.658Z,510.7692
2023-05-16T01:38:17.002Z,511.1538
2023-05-16T01:39:19.359Z,511.8462
2023-05-16T01:40:21.691Z,514.8461
2023-05-16T01:41:24.056Z,514.4615
2023-05-16T01:42:26.414Z,514.2500
2023-05-16T01:43:28.683Z,514.5455
2023-05-16T01:44:30.973Z,512.3846
2023-05-16T01:45:33.321Z,511.2308
2023-05-16T01:46:35.684Z,512.4615
2023-05-16T01:47:37.988Z,513.3077
2023-05-16T01:48:40.300Z,514.0909
2023-05-16T01:49:42.660Z,513.9231
2023-05-16T01:50:44.980Z,515.0000
2023-05-16T01:51:47.290Z,509.8462
2023-05-16T01:52:49.634Z,511.7692
2023-05-16T01:53:51.968Z,510.0769
2023-05-16T01:54:54.292Z,508.1538
2023-05-16T01:55:56.634Z,505.3846
2023-05-16T01:56:58.940Z,503.8462
2023-05-16T01:58:01.275Z,500.5385
2023-05-16T01:59:03.620Z,500.9231
2023-05-16T02:00:05.979Z,502.4615
2023-05-16T02:01:08.348Z,506.0833
2023-05-16T02:02:10.602Z,509.7500
2023-05-16T02:03:13.042Z,512.0769
2023-05-16T02:04:15.390Z,515.7500
2023-05-16T02:05:17.645Z,514.0000
2023-05-16T02:06:19.949Z,511.3077
2023-05-16T02:07:22.324Z,510.1818
2023-05-16T02:08:24.561Z,512.6364
2023-05-16T02:09:26.901Z,512.0000
2023-05-16T02:10:29.249Z,512.3077
2023-05-16T02:11:31.681Z,510.4615
2023-05-16T02:12:33.911Z,511.0833
2023-05-16T02:13:36.295Z,513.5385
2023-05-16T02:14:38.582Z,514.0833
2023-05-16T02:15:40.935Z,513.4615
2023-05-16T02:16:43.311Z,511.5385
2023-05-16T02:17:45.638Z,509.8333
2023-05-16T02:18:47.953Z,511.0833
2023-05-16T02:19:50.281Z,511.0769
2023-05-16T02:20:52.625Z,512.3333
2023-05-16T02:21:54.896Z,508.7500
2023-05-16T02:22:57.233Z,508.2308
2023-05-16T02:23:59.546Z,505.6154
2023-05-16T02:25:01.858Z,502.3636
2023-05-16T02:26:04.201Z,501.8462
2023-05-16T02:27:06.569Z,506.6923
2023-05-16T02:28:08.881Z,509.0000
2023-05-16T02:29:11.216Z,507.9231
2023-05-16T02:30:13.533Z,506.6923
2023-05-16T02:31:15.937Z,505.2308
2023-05-16T02:32:18.225Z,501.8333
2023-05-16T02:33:20.541Z,501.0769
2023-05-16T02:34:22.915Z,503.3846
2023-05-16T02:35:25.368Z,503.0769
2023-05-16T02:36:27.563Z,503.2500
2023-05-16T02:37:29.885Z,505.9231
2023-05-16T02:38:32.212Z,507.7692
2023-05-16T02:39:34.562Z,508.8462
2023-05-16T02:40:36.882Z,508.0000
2023-05-16T02:41:39.203Z,507.2308
2023-05-16T02:42:41.534Z,507.4615
2023-05-16T02:43:46.811Z,508.6154
2023-05-16T02:44:53.785Z,509.8333
2023-05-16T02:45:48.802Z,512.0909
2023-05-16T02:46:51.052Z,512.9167
2023-05-16T02:47:53.225Z,512.3636
2023-05-16T02:48:55.539Z,510.0000
2023-05-16T02:49:57.887Z,505.6154
2023-05-16T02:51:00.184Z,500.9231
2023-05-16T02:52:02.550Z,504.5385
2023-05-16T02:53:04.825Z,508.1538
2023-05-16T02:54:07.195Z,511.6923
2023-05-16T02:55:21.760Z,510.4615
2023-05-16T02:56:11.894Z,507.9091
2023-05-16T02:57:14.181Z,508.6154
2023-05-16T02:58:16.542Z,509.6923
2023-05-16T02:59:18.911Z,507.6154
2023-05-16T03:00:21.170Z,505.6923
2023-05-16T03:01:23.609Z,507.2308
2023-05-16T03:02:26.027Z,505.2308
2023-05-16T03:03:28.491Z,503.3333
2023-05-16T03:04:30.662Z,505.6667
2023-05-16T03:05:33.279Z,505.7500
2023-05-16T03:06:35.258Z,509.0833
2023-05-16T03:07:37.560Z,511.3077
2023-05-16T03:08:39.889Z,510.1538
2023-05-16T03:09:42.259Z,504.5385
2023-05-16T03:10:44.543Z,504.9231
2023-05-16T03:11:46.888Z,504.3846
2023-05-16T03:12:49.232Z,505.0769
2023-05-16T03:13:51.582Z,503.9231
2023-05-16T03:14:53.896Z,504.8462
2023-05-16T03:15:56.241Z,507.3077
2023-05-16T03:16:58.543Z,508.2727
2023-05-16T03:18:00.906Z,508.0000
2023-05-16T03:19:03.218Z,508.4615
2023-05-16T03:20:05.547Z,508.6667
2023-05-16T03:21:07.861Z,507.0000
2023-05-16T03:22:10.206Z,506.3846
2023-05-16T03:23:12.561Z,505.5385
2023-05-16T03:24:14.910Z,506.6154
2023-05-16T03:25:17.213Z,510.2500
2023-05-16T03:26:19.536Z,509.6154
2023-05-16T03:27:21.908Z,508.7692
2023-05-16T03:28:24.248Z,509.8462
2023-05-16T03:29:26.537Z,508.9231
2023-05-16T03:30:28.865Z,508.3846
2023-05-16T03:31:31.228Z,510.0769
2023-05-16T03:32:33.614Z,514.0769
2023-05-16T03:33:35.900Z,514.6667
2023-05-16T03:34:38.232Z,514.6923
2023-05-16T03:35:40.575Z,515.9231
2023-05-16T03:36:42.855Z,515.9231
2023-05-16T03:37:45.243Z,517.3077
2023-05-16T03:38:47.540Z,517.6154
2023-05-16T03:39:49.857Z,519.0769
2023-05-16T03:40:52.196Z,518.5385
2023-05-16T03:41:54.536Z,517.8461
2023-05-16T03:42:56.873Z,516.8461
2023-05-16T03:43:59.200Z,516.9231
2023-05-16T03:45:01.540Z,517.5385
2023-05-16T03:46:03.902Z,516.6154
2023-05-16T03:47:06.205Z,514.1539
2023-05-16T03:48:08.591Z,515.6154
2023-05-16T03:49:10.862Z,517.0000
2023-05-16T03:50:13.237Z,516.4615
2023-05-16T03:51:15.521Z,516.0000
2023-05-16T03:52:17.952Z,516.8461
2023-05-16T03:53:20.236Z,517.1667
2023-05-16T03:54:22.595Z,518.5455
2023-05-16T03:55:25.159Z,520.5000
2023-05-16T03:56:27.232Z,523.5000
2023-05-16T03:57:29.563Z,524.9167
2023-05-16T03:58:31.903Z,523.2500
2023-05-16T03:59:34.169Z,518.0833
2023-05-16T04:00:36.502Z,517.4615
2023-05-16T04:01:38.981Z,517.6923
2023-05-16T04:02:41.420Z,516.0833
2023-05-16T04:03:43.576Z,518.0000
2023-05-16T04:04:46.082Z,517.9167
2023-05-16T04:05:48.216Z,518.0833
2023-05-16T04:06:50.495Z,519.0769
2023-05-16T04:07:52.860Z,516.3846
2023-05-16T04:08:55.233Z,515.9167
2023-05-16T04:09:57.471Z,515.5833
2023-05-16T04:10:59.835Z,513.3846
2023-05-16T04:12:02.301Z,513.2500
2023-05-16T04:13:04.464Z,514.0833
2023-05-16T04:14:06.857Z,514.3846
2023-05-16T04:15:09.130Z,514.4167
2023-05-16T04:16:11.462Z,513.2308
2023-05-16T04:17:13.799Z,512.5385
2023-05-16T04:18:16.187Z,513.5385
2023-05-16T04:19:18.659Z,511.2500
2023-05-16T04:20:20.765Z,507.8333
2023-05-16T04:21:23.132Z,507.3077
2023-05-16T04:22:25.459Z,506.3077
2023-05-16T04:23:27.766Z,503.9091
2023-05-16T04:24:30.126Z,501.6923
2023-05-16T04:25:32.423Z,501.4615
2023-05-16T04:26:34.808Z,502.4615
2023-05-16T04:27:37.072Z,503.0000
2023-05-16T04:28:39.418Z,503.3077
2023-05-16T04:29:41.772Z,500.6923
2023-05-16T04:30:44.159Z,499.7273
2023-05-16T04:31:46.541Z,501.3333
2023-05-16T04:32:48.792Z,501.0000
2023-05-16T04:33:51.115Z,503.3333
2023-05-16T04:34:53.498Z,502.4615
2023-05-16T04:35:55.815Z,501.4167
2023-05-16T04:36:58.193Z,498.8182
2023-05-16T04:38:00.385Z,498.4167
2023-05-16T04:39:02.724Z,498.9091
2023-05-16T04:40:05.056Z,498.7692
2023-05-16T04:41:07.385Z,500.9231
2023-05-16T04:42:09.724Z,502.3846
2023-05-16T04:43:12.055Z,505.0769
2023-05-16T04:44:14.451Z,503.7692
2023-05-16T04:45:16.712Z,502.2500
2023-05-16T04:46:19.105Z,500.3846
2023-05-16T04:47:21.452Z,499.9091
2023-05-16T04:48:23.734Z,501.0833
2023-05-16T04:49:26.132Z,503.4615
2023-05-16T04:50:28.581Z,504.5000
2023-05-16T04:51:30.817Z,502.2500
2023-05-16T04:52:33.284Z,499.3333
2023-05-16T04:53:35.488Z,500.5833
2023-05-16T04:54:37.958Z,503.4167
2023-05-16T04:55:40.367Z,503.6667
2023-05-16T04:56:42.595Z,503.9167
2023-05-16T04:57:44.886Z,501.0000
2023-05-16T04:58:47.306Z,500.5833
2023-05-16T04:59:49.445Z,501.0000
2023-05-16T05:00:51.900Z,497.8333
2023-05-16T05:01:54.172Z,497.6364
2023-05-16T05:02:56.477Z,497.5454
2023-05-16T05:03:58.724Z,496.2500
2023-05-16T05:05:01.159Z,496.5000
2023-05-16T05:06:03.526Z,496.2500
2023-05-16T05:07:05.850Z,497.5833
2023-05-16T05:08:08.117Z,499.0833
2023-05-16T05:09:10.422Z,500.4167
2023-05-16T05:10:12.867Z,497.2500
2023-05-16T05:11:15.288Z,496.7500
2023-05-16T05:12:17.518Z,498.5833
2023-05-16T05:13:19.839Z,497.0833
2023-05-16T05:14:22.201Z,497.4167
2023-05-16T05:15:24.892Z,496.2500
2023-05-16T05:16:26.799Z,497.0833
2023-05-16T05:17:29.213Z,496.3333
2023-05-16T05:18:31.513Z,495.4167
2023-05-16T05:19:33.782Z,494.6667
2023-05-16T05:20:36.092Z,497.2500
2023-05-16T05:21:38.364Z,499.1667
2023-05-16T05:22:40.751Z,500.5833
2023-05-16T05:23:43.071Z,501.0833
2023-05-16T05:24:45.324Z,502.5833
2023-05-16T05:25:47.678Z,502.6923
2023-05-16T05:26:50.170Z,499.4167
2023-05-16T05:27:52.354Z,498.5000
2023-05-16T05:29:04.746Z,499.3846
2023-05-16T05:29:57.199Z,499.0909
2023-05-16T05:30:59.347Z,496.6667
2023-05-16T05:32:01.853Z,495.3846
2023-05-16T05:33:04.058Z,495.2500
2023-05-16T05:34:06.454Z,495.0833
2023-05-16T05:35:08.697Z,493.5000
2023-05-16T05:36:11.032Z,493.6667
2023-05-16T05:37:13.420Z,496.1667
2023-05-16T05:38:15.809Z,496.4546
2023-05-16T05:39:17.988Z,498.2500
2023-05-16T05:40:20.544Z,497.8462
2023-05-16T05:41:22.747Z,498.3333
2023-05-16T05:42:25.098Z,496.3333
2023-05-16T05:43:27.346Z,495.0833
2023-05-16T05:44:29.714Z,494.4167
2023-05-16T05:45:32.006Z,496.5000
2023-05-16T05:46:34.402Z,495.3636
2023-05-16T05:47:36.702Z,494.0000
2023-05-16T05:48:39.034Z,493.3333
2023-05-16T05:49:41.344Z,493.7500
2023-05-16T05:50:43.652Z,493.4615
2023-05-16T05:51:46.005Z,493.1538
2023-05-16T05:52:48.337Z,496.0000
2023-05-16T05:53:50.679Z,497.1538
2023-05-16T05:54:52.964Z,498.3077
2023-05-16T05:55:55.341Z,496.3846
2023-05-16T05:56:57.678Z,496.0000
2023-05-16T05:58:00.008Z,496.9231
2023-05-16T05:59:02.302Z,495.4167
2023-05-16T06:00:04.636Z,496.6154
2023-05-16T06:01:06.988Z,498.8462
2023-05-16T06:02:09.457Z,498.4615
2023-05-16T06:03:11.715Z,499.3333
2023-05-16T06:04:13.967Z,498.4546
2023-05-16T06:05:16.356Z,497.1538
2023-05-16T06:06:18.676Z,496.9167
2023-05-16T06:07:20.990Z,495.6667
2023-05-16T06:08:23.290Z,495.7273
2023-05-16T06:09:25.616Z,493.3846
2023-05-16T06:10:27.950Z,493.9231
2023-05-16T06:11:30.276Z,493.6923
2023-05-16T06:12:32.625Z,493.4615
2023-05-16T06:13:34.940Z,492.7692
2023-05-16T06:14:37.274Z,489.6154
2023-05-16T06:15:39.669Z,490.2308
2023-05-16T06:16:41.937Z,493.4167
2023-05-16T06:17:44.781Z,491.0000
2023-05-16T06:18:46.648Z,487.9167
2023-05-16T06:19:48.976Z,489.9167
2023-05-16T06:20:51.289Z,490.1667
2023-05-16T06:21:53.613Z,491.0000
2023-05-16T06:22:55.965Z,492.1538
2023-05-16T06:23:58.293Z,489.7692
2023-05-16T06:25:00.596Z,489.1538
2023-05-16T06:26:02.953Z,490.0769
2023-05-16T06:27:05.282Z,494.1538
2023-05-16T06:28:07.652Z,493.6154
2023-05-16T06:29:09.961Z,492.1667
2023-05-16T06:30:12.289Z,490.7692
2023-05-16T06:31:14.637Z,489.5385
2023-05-16T06:32:16.965Z,489.5000
2023-05-16T06:33:19.365Z,490.5385
2023-05-16T06:34:21.639Z,490.4167
2023-05-16T06:35:23.948Z,492.6923
2023-05-16T06:36:26.347Z,490.2308
2023-05-16T06:37:28.654Z,489.1667
2023-05-16T06:38:30.943Z,489.9231
2023-05-16T06:39:33.277Z,489.7692
2023-05-16T06:40:35.628Z,490.3077
2023-05-16T06:41:37.971Z,491.1538
2023-05-16T06:42:40.283Z,491.6364
2023-05-16T06:43:42.646Z,488.4615
2023-05-16T06:44:44.964Z,488.5385
2023-05-16T06:45:47.285Z,487.0769
2023-05-16T06:46:49.708Z,487.6154
2023-05-16T06:47:52.099Z,488.4167
2023-05-16T06:48:54.318Z,490.9167
2023-05-16T06:49:56.631Z,491.7692
2023-05-16T06:51:06.475Z,495.0000
2023-05-16T06:52:01.288Z,494.5454
2023-05-16T06:53:03.605Z,497.6154
2023-05-16T06:54:05.948Z,495.2308
2023-05-16T06:55:08.303Z,493.5385
2023-05-16T06:56:10.624Z,493.8462
2023-05-16T06:57:12.982Z,493.9231
2023-05-16T06:58:15.285Z,494.1538
2023-05-16T06:59:17.599Z,493.4615
2023-05-16T07:00:19.946Z,491.2308
2023-05-16T07:01:22.370Z,490.0769
2023-05-16T07:02:24.753Z,489.0833
2023-05-16T07:03:26.981Z,489.5833
2023-05-16T07:04:29.295Z,491.0000
2023-05-16T07:05:31.624Z,491.4615
2023-05-16T07:06:34.042Z,492.5385
2023-05-16T07:07:36.399Z,493.5385
2023-05-16T07:08:38.687Z,493.3846
2023-05-16T07:09:41.019Z,492.8462
2023-05-16T07:10:43.361Z,493.0769
2023-05-16T07:11:45.677Z,492.6154
2023-05-16T07:12:48.045Z,489.9231
2023-05-16T07:13:50.364Z,489.1538
2023-05-16T07:14:52.702Z,489.3846
2023-05-16T07:15:55.049Z,488.9231
2023-05-16T07:16:57.445Z,490.5000
2023-05-16T07:17:59.726Z,490.1538
2023-05-16T07:19:02.137Z,487.6154
2023-05-16T07:20:05.449Z,484.7500
2023-05-16T07:21:06.774Z,486.5000
2023-05-16T07:22:09.078Z,485.6667
2023-05-16T07:23:11.348Z,486.8333
2023-05-16T07:24:13.665Z,485.0000
2023-05-16T07:25:16.052Z,487.2308
2023-05-16T07:26:18.614Z,488.8333
2023-05-16T07:27:23.357Z,486.8333
2023-05-16T07:28:22.989Z,488.6667
2023-05-16T07:29:25.318Z,486.4615
2023-05-16T07:30:27.668Z,486.3846
2023-05-16T07:31:30.000Z,486.6154
2023-05-16T07:32:32.311Z,487.1538
2023-05-16T07:33:34.640Z,488.4615
2023-05-16T07:34:36.963Z,488.6923
2023-05-16T07:35:39.397Z,488.3077
2023-05-16T07:36:41.621Z,485.4167
2023-05-16T07:37:43.984Z,484.3846
2023-05-16T07:38:46.282Z,484.0769
2023-05-16T07:39:48.605Z,482.3077
2023-05-16T07:40:50.988Z,483.6923
2023-05-16T07:41:53.307Z,484.4615
2023-05-16T07:42:55.633Z,483.0769
2023-05-16T07:43:57.961Z,482.6923
2023-05-16T07:45:00.303Z,483.3077
2023-05-16T07:46:02.654Z,483.0769
2023-05-16T07:47:04.967Z,485.3846
2023-05-16T07:48:07.306Z,484.4615
2023-05-16T07:49:09.643Z,482.5385
2023-05-16T07:50:12.027Z,481.5385
2023-05-16T07:51:14.315Z,480.9167
2023-05-16T07:52:16.721Z,479.9167
2023-05-16T07:53:19.096Z,481.1667
2023-05-16T07:54:21.272Z,483.4167
2023-05-16T07:55:23.625Z,485.0769
2023-05-16T07:56:26.058Z,487.2308
2023-05-16T07:57:28.330Z,487.7500
2023-05-16T07:58:30.656Z,486.1667
2023-05-16T07:59:33.086Z,483.0833
2023-05-16T08:00:35.270Z,483.3333
2023-05-16T08:01:37.598Z,480.8462
2023-05-16T08:02:40.051Z,481.6923
2023-05-16T08:03:42.368Z,483.0833
2023-05-16T08:04:44.592Z,484.8333
2023-05-16T08:05:47.125Z,487.4615
2023-05-16T08:06:49.252Z,487.0833
2023-05-16T08:07:51.610Z,487.6154
2023-05-16T08:08:53.954Z,489.0000
2023-05-16T08:09:56.273Z,487.1538
2023-05-16T08:10:58.586Z,488.2308
2023-05-16T08:12:00.952Z,485.1538
2023-05-16T08:13:03.257Z,483.3846
2023-05-16T08:14:05.589Z,484.3077
2023-05-16T08:15:07.917Z,483.7692
2023-05-16T08:16:10.282Z,481.0000
2023-05-16T08:17:12.608Z,478.8333
2023-05-16T08:18:15.039Z,477.8462
2023-05-16T08:19:17.370Z,479.2500
2023-05-16T08:20:19.583Z,480.3333
2023-05-16T08:21:21.976Z,481.2308
2023-05-16T08:22:24.570Z,483.2500
2023-05-16T08:23:27.530Z,484.5833
2023-05-16T08:24:28.917Z,485.4167
2023-05-16T08:25:31.282Z,485.4615
2023-05-16T08:26:33.570Z,486.0769
2023-05-16T08:27:35.893Z,485.6154
2023-05-16T08:28:38.273Z,483.6154
2023-05-16T08:29:40.559Z,482.8462
2023-05-16T08:30:43.813Z,483.8462
2023-05-16T08:31:45.317Z,480.6667
2023-05-16T08:32:47.631Z,478.8462
2023-05-16T08:33:49.990Z,480.4615
2023-05-16T08:34:52.229Z,478.7692
2023-05-16T08:35:54.592Z,479.4615
2023-05-16T08:36:56.986Z,479.2308
2023-05-16T08:37:59.450Z,479.9167
2023-05-16T08:39:01.793Z,478.5833
2023-05-16T08:40:03.997Z,476.5833
2023-05-16T08:41:06.238Z,474.2500
2023-05-16T08:42:08.553Z,475.3077
2023-05-16T08:43:10.938Z,476.6923
2023-05-16T08:44:13.280Z,480.0000
2023-05-16T08:45:15.609Z,480.6667
2023-05-16T08:46:17.919Z,483.2500
2023-05-16T08:47:20.237Z,483.3846
2023-05-16T08:48:22.859Z,483.9231
2023-05-16T08:49:24.962Z,483.8333
2023-05-16T08:50:27.248Z,482.8333
2023-05-16T08:51:29.639Z,483.0769
2023-05-16T08:52:32.056Z,480.9167
2023-05-16T08:53:34.289Z,482.0000
2023-05-16T08:54:36.684Z,480.5833
2023-05-16T08:55:39.206Z,480.7500
2023-05-16T08:56:41.291Z,479.9167
2023-05-16T08:57:43.554Z,478.9231
2023-05-16T08:58:45.938Z,477.6154
2023-05-16T08:59:48.342Z,477.3077
2023-05-16T09:00:50.686Z,474.4167
2023-05-16T09:01:52.927Z,473.1667
2023-05-16T09:02:55.324Z,476.1538
2023-05-16T09:03:57.726Z,476.4615
2023-05-16T09:04:59.943Z,476.6667
2023-05-16T09:06:02.332Z,473.7692
2023-05-16T09:07:04.786Z,477.6667
2023-05-16T09:08:07.033Z,477.5000
2023-05-16T09:09:09.290Z,473.5000
2023-05-16T09:10:11.680Z,472.0769
2023-05-16T09:11:14.034Z,473.3846
2023-05-16T09:12:16.319Z,475.7500
2023-05-16T09:13:18.929Z,475.3846
2023-05-16T09:14:21.045Z,474.5000
2023-05-16T09:15:23.306Z,474.8333
2023-05-16T09:16:26.029Z,471.6923
2023-05-16T09:17:39.065Z,473.3333
2023-05-16T09:18:30.334Z,474.5454
2023-05-16T09:19:32.717Z,471.7692
2023-05-16T09:20:35.081Z,473.0769
2023-05-16T09:21:37.325Z,472.2308
2023-05-16T09:22:39.888Z,472.3846
2023-05-16T09:23:42.056Z,473.0833
2023-05-16T09:24:44.378Z,474.3077
2023-05-16T09:25:46.716Z,475.0769
2023-05-16T09:26:49.001Z,473.6923
2023-05-16T09:27:51.396Z,472.6154
2023-05-16T09:28:53.676Z,474.9167
2023-05-16T09:29:56.312Z,476.6154
2023-05-16T09:30:58.469Z,472.5833
2023-05-16T09:32:00.696Z,473.0000
2023-05-16T09:33:03.207Z,469.9231
2023-05-16T09:34:05.332Z,470.5000
2023-05-16T09:35:07.720Z,468.6923
2023-05-16T09:36:10.062Z,469.0769
2023-05-16T09:37:12.370Z,468.9231
2023-05-16T09:38:14.732Z,468.9231
2023-05-16T09:39:17.150Z,466.6923
2023-05-16T09:40:19.488Z,465.2500
2023-05-16T09:41:21.752Z,464.3077
2023-05-16T09:42:24.227Z,465.6154
2023-05-16T09:43:26.429Z,465.2500
2023-05-16T09:44:28.833Z,466.1538
2023-05-16T09:45:31.224Z,465.0833
2023-05-16T09:46:33.475Z,464.5000
2023-05-16T09:47:35.809Z,465.6923
2023-05-16T09:48:38.096Z,466.0000
2023-05-16T09:49:40.522Z,467.2308
2023-05-16T09:50:42.763Z,468.0000
2023-05-16T09:51:45.208Z,468.3077
2023-05-16T09:52:47.510Z,468.3333
2023-05-16T09:53:49.774Z,469.1667
2023-05-16T09:54:52.097Z,470.0000
2023-05-16T09:55:54.460Z,471.5385
2023-05-16T09:56:56.888Z,473.0769
2023-05-16T09:57:59.166Z,471.8333
2023-05-16T09:59:01.497Z,475.0769
2023-05-16T10:00:03.985Z,475.2500
2023-05-16T10:01:06.112Z,473.5000
2023-05-16T10:02:08.473Z,473.7692
2023-05-16T10:03:10.878Z,473.8462
2023-05-16T10:04:13.284Z,473.2500
2023-05-16T10:05:15.589Z,476.1667
2023-05-16T10:06:17.986Z,476.6667
2023-05-16T10:07:20.283Z,476.7500
2023-05-16T10:08:22.908Z,475.5833
2023-05-16T10:09:24.825Z,474.5000
2023-05-16T10:10:27.181Z,475.0000
2023-05-16T10:11:29.715Z,475.5385
2023-05-16T10:12:31.916Z,474.5833
2023-05-16T10:13:34.341Z,470.5833
2023-05-16T10:14:36.550Z,469.2500
2023-05-16T10:15:38.974Z,467.8462
2023-05-16T10:16:41.417Z,465.8333
2023-05-16T10:17:43.623Z,465.5000
2023-05-16T10:18:46.107Z,469.1667
2023-05-16T10:19:48.228Z,473.6667
2023-05-16T10:20:50.548Z,474.6923
2023-05-16T10:21:52.975Z,476.2308
2023-05-16T10:22:55.251Z,476.0000
2023-05-16T10:23:57.553Z,475.0769
2023-05-16T10:24:59.967Z,475.9231
2023-05-16T10:26:02.363Z,473.5833
2023-05-16T10:27:04.720Z,471.9167
2023-05-16T10:28:06.903Z,473.0833
2023-05-16T10:29:09.233Z,473.0833
2023-05-16T10:30:11.591Z,470.7692
2023-05-16T10:31:13.984Z,469.2500
2023-05-16T10:32:16.353Z,472.0833
2023-05-16T10:33:18.789Z,474.3333
2023-05-16T10:34:21.329Z,473.0833
2023-05-16T10:35:23.270Z,472.0833
2023-05-16T10:36:25.816Z,471.1667
2023-05-16T10:37:27.942Z,473.5833
2023-05-16T10:38:30.432Z,472.2500
2023-05-16T10:39:32.566Z,472.3333
2023-05-16T10:40:34.887Z,473.7692
2023-05-16T10:41:37.213Z,472.3846
2023-05-16T10:42:39.576Z,475.8462
2023-05-16T10:43:44.525Z,477.1538
2023-05-16T10:44:54.665Z,472.0000
2023-05-16T10:45:46.584Z,472.2727
2023-05-16T10:46:48.932Z,473.5000
2023-05-16T10:47:51.237Z,473.1667
2023-05-16T10:48:55.510Z,472.0000
2023-05-16T10:49:55.907Z,473.1667
2023-05-16T10:50:58.230Z,471.4167
2023-05-16T10:52:00.680Z,467.5000
2023-05-16T10:53:03.013Z,467.0833
2023-05-16T10:54:05.370Z,464.8333
2023-05-16T10:55:07.549Z,467.3333
2023-05-16T10:56:10.164Z,469.1538
2023-05-16T10:57:12.300Z,468.9167
2023-05-16T10:58:14.770Z,469.5833
2023-05-16T10:59:16.983Z,469.1667
2023-05-16T11:00:19.244Z,468.3333
2023-05-16T11:01:21.820Z,470.3333
2023-05-16T11:02:23.962Z,471.0000
2023-05-16T11:03:26.408Z,473.0833
2023-05-16T11:04:28.580Z,472.2500
2023-05-16T11:05:30.855Z,470.6667
2023-05-16T11:06:33.371Z,469.0000
2023-05-16T11:07:35.700Z,467.1667
2023-05-16T11:08:37.922Z,466.8333
2023-05-16T11:09:40.441Z,468.0833
2023-05-16T11:10:42.632Z,466.5000
2023-05-16T11:11:47.970Z,465.2500
2023-05-16T11:12:47.265Z,465.9091
2023-05-16T11:13:49.586Z,468.0769
2023-05-16T11:14:51.919Z,468.2308
2023-05-16T11:15:54.253Z,468.6923
2023-05-16T11:16:56.844Z,469.3077
2023-05-16T11:17:58.969Z,470.6667
2023-05-16T11:19:01.395Z,472.9167
2023-05-16T11:20:03.686Z,470.1667
2023-05-16T11:21:05.945Z,468.6667
2023-05-16T11:22:08.267Z,470.2308
2023-05-16T11:23:10.593Z,470.5000
2023-05-16T11:24:12.998Z,470.2308
2023-05-16T11:25:15.408Z,467.8333
2023-05-16T11:26:17.715Z,467.3333
2023-05-16T11:27:19.917Z,468.6667
2023-05-16T11:28:22.647Z,468.2308
2023-05-16T11:29:24.541Z,468.5833
2023-05-16T11:30:26.968Z,466.3846
2023-05-16T11:31:29.326Z,466.0833
2023-05-16T11:32:31.974Z,465.9167
2023-05-16T11:33:34.065Z,467.0000
2023-05-16T11:34:36.234Z,468.5000
2023-05-16T11:35:38.595Z,471.1667
2023-05-16T11:36:41.017Z,474.9231
2023-05-16T11:37:43.321Z,478.3333
2023-05-16T11:38:45.612Z,477.8333
2023-05-16T11:39:48.042Z,472.5385
2023-05-16T11:40:50.280Z,468.2500
2023-05-16T11:41:52.584Z,468.2308
2023-05-16T11:42:55.134Z,468.0000
2023-05-16T11:43:57.249Z,467.2500
2023-05-16T11:44:59.611Z,471.6154
2023-05-16T11:46:01.967Z,472.3333
2023-05-16T11:47:04.441Z,473.6667
2023-05-16T11:48:06.726Z,473.2500
2023-05-16T11:49:08.959Z,471.0833
2023-05-16T11:50:11.273Z,474.7500
2023-05-16T11:51:13.643Z,475.7500
2023-05-16T11:52:15.888Z,476.4167
2023-05-16T11:53:18.242Z,476.0000
2023-05-16T11:54:20.589Z,477.0000
2023-05-16T11:55:36.788Z,477.5833
2023-05-16T11:56:25.286Z,476.8182
2023-05-16T11:57:27.527Z,476.6923
2023-05-16T11:58:29.966Z,477.3077
2023-05-16T11:59:32.252Z,477.8333
2023-05-16T12:00:34.551Z,479.2500
2023-05-16T12:01:36.902Z,479.6923
2023-05-16T12:02:39.268Z,479.6154
2023-05-16T12:03:41.735Z,481.1667
2023-05-16T12:04:43.991Z,477.2500
2023-05-16T12:05:46.411Z,474.2500
2023-05-16T12:06:48.590Z,473.4167
2023-05-16T12:07:50.859Z,475.6667
2023-05-16T12:08:53.173Z,476.3077
2023-05-16T12:09:55.493Z,477.2308
2023-05-16T12:10:57.839Z,476.3077
2023-05-16T12:12:00.199Z,476.3846